createdAt,value
2023-02-08T00:00:49.183Z,82.44
2023-02-08T00:03:16.143Z,83.09
2023-02-08T00:05:42.852Z,83.41
2023-02-08T00:08:09.537Z,83.26
2023-02-08T00:10:36.287Z,82.52
2023-02-08T00:13:03.144Z,83.31
2023-02-08T00:15:29.771Z,82.28
2023-02-08T00:17:56.424Z,82.31
2023-02-08T00:20:23.177Z,82.58
2023-02-08T00:22:51.525Z,82.61
2023-02-08T00:25:19.128Z,82.13
2023-02-08T00:27:45.721Z,81.39
2023-02-08T00:30:12.566Z,81.35
2023-02-08T00:32:39.189Z,81.91
2023-02-08T00:35:06.183Z,82.38
2023-02-08T00:37:32.797Z,81.35
2023-02-08T00:39:59.381Z,80.98
2023-02-08T00:42:26.026Z,80.65
2023-02-08T00:44:52.661Z,81.46
2023-02-08T00:47:19.298Z,81.46
2023-02-08T00:49:45.946Z,81.85
2023-02-08T00:52:12.607Z,80.83
2023-02-08T00:54:39.231Z,79.91
2023-02-08T00:57:05.873Z,80.44
2023-02-08T00:59:32.523Z,81.01
2023-02-08T01:01:59.157Z,80.08
2023-02-08T01:04:26.545Z,78.85
2023-02-08T01:06:53.142Z,80.38
2023-02-08T01:09:19.743Z,80.18
2023-02-08T01:11:46.357Z,80.42
2023-02-08T01:14:13.185Z,79.67
2023-02-08T01:16:40.025Z,78.72
2023-02-08T01:19:06.642Z,78.69
2023-02-08T01:21:38.948Z,77.80
2023-02-08T01:24:06.333Z,77.89
2023-02-08T01:26:33.783Z,78.61
2023-02-08T01:29:00.606Z,77.91
2023-02-08T01:31:30.425Z,78.19
2023-02-08T01:33:58.369Z,76.11
2023-02-08T01:36:26.242Z,76.76
2023-02-08T01:38:52.883Z,77.08
2023-02-08T01:41:29.093Z,76.54
2023-02-08T01:44:07.638Z,75.88
2023-02-08T01:46:42.739Z,75.99
2023-02-08T01:49:18.339Z,75.22
2023-02-08T01:52:08.070Z,75.50
2023-02-08T01:54:57.945Z,76.09
2023-02-08T01:57:25.487Z,74.97
2023-02-08T02:00:01.164Z,75.72
2023-02-08T02:02:28.789Z,74.52
2023-02-08T02:04:56.076Z,73.77
2023-02-08T02:07:27.043Z,75.03
2023-02-08T02:10:08.268Z,75.50
2023-02-08T02:12:37.487Z,75.32
2023-02-08T02:15:05.336Z,76.90
2023-02-08T02:17:32.306Z,76.57
2023-02-08T02:20:04.813Z,75.49
2023-02-08T02:22:50.379Z,75.64
2023-02-08T02:25:43.508Z,74.72
2023-02-08T02:28:31.879Z,75.25
2023-02-08T02:30:58.509Z,76.01
2023-02-08T02:33:43.764Z,75.41
2023-02-08T02:36:16.011Z,75.84
2023-02-08T02:39:00.791Z,75.60
2023-02-08T02:41:42.468Z,75.01
2023-02-08T02:44:23.583Z,74.80
2023-02-08T02:47:01.660Z,75.59
2023-02-08T02:49:53.800Z,75.45
2023-02-08T02:52:40.785Z,75.17
2023-02-08T02:55:15.871Z,75.09
2023-02-08T02:57:45.187Z,74.64
2023-02-08T03:00:19.784Z,75.20
2023-02-08T03:02:46.394Z,76.11
2023-02-08T03:05:13.654Z,75.04
2023-02-08T03:07:50.953Z,75.12
2023-02-08T03:10:23.442Z,75.11
2023-02-08T03:13:19.527Z,74.21
2023-02-08T03:16:21.169Z,75.59
2023-02-08T03:18:55.555Z,74.63
2023-02-08T03:21:47.146Z,74.52
2023-02-08T03:24:38.344Z,75.13
2023-02-08T03:27:28.205Z,74.80
2023-02-08T03:30:08.474Z,75.31
2023-02-08T03:32:43.044Z,75.69
2023-02-08T03:35:10.370Z,74.11
2023-02-08T03:37:50.286Z,74.41
2023-02-08T03:40:27.944Z,74.75
2023-02-08T03:42:59.511Z,74.99
2023-02-08T03:45:37.265Z,74.01
2023-02-08T03:48:08.131Z,73.46
2023-02-08T03:50:38.285Z,74.14
2023-02-08T03:53:07.313Z,74.27
2023-02-08T03:55:37.101Z,73.93
2023-02-08T03:58:09.517Z,73.53
2023-02-08T04:00:41.044Z,73.09
2023-02-08T04:03:34.240Z,73.48
2023-02-08T04:06:00.957Z,73.23
2023-02-08T04:08:27.738Z,73.60
2023-02-08T04:10:54.429Z,74.31
2023-02-08T04:13:21.072Z,74.70
2023-02-08T04:15:47.723Z,74.78
2023-02-08T04:18:14.362Z,74.36
2023-02-08T04:20:41.323Z,74.75
2023-02-08T04:23:08.147Z,74.75
2023-02-08T04:25:34.713Z,75.27
2023-02-08T04:28:01.361Z,75.18
2023-02-08T04:30:28.016Z,74.96
2023-02-08T04:32:54.653Z,74.77
2023-02-08T04:35:21.292Z,74.86
2023-02-08T04:37:47.912Z,74.54
2023-02-08T04:40:14.499Z,74.27
2023-02-08T04:42:41.106Z,74.86
2023-02-08T04:45:08.208Z,74.91
2023-02-08T04:47:34.851Z,75.18
2023-02-08T04:50:01.512Z,75.57
2023-02-08T04:52:28.120Z,75.15
2023-02-08T04:54:54.726Z,75.21
2023-02-08T04:57:21.332Z,75.16
2023-02-08T04:59:47.938Z,75.18
2023-02-08T05:02:14.562Z,74.71
2023-02-08T05:04:41.154Z,74.64
2023-02-08T05:07:07.830Z,75.97
2023-02-08T05:09:34.418Z,75.38
2023-02-08T05:12:01.016Z,75.17
2023-02-08T05:14:27.679Z,75.11
2023-02-08T05:16:54.430Z,75.13
2023-02-08T05:19:21.023Z,74.43
2023-02-08T05:21:47.684Z,73.91
2023-02-08T05:24:14.291Z,74.50
2023-02-08T05:26:41.568Z,74.44
2023-02-08T05:29:08.235Z,74.81
2023-02-08T05:31:35.215Z,74.26
2023-02-08T05:34:02.195Z,73.87
2023-02-08T05:36:29.596Z,74.29
2023-02-08T05:38:56.283Z,73.98
2023-02-08T05:41:22.876Z,74.41
2023-02-08T05:43:49.584Z,73.79
2023-02-08T05:46:16.428Z,74.34
2023-02-08T05:48:43.114Z,73.69
2023-02-08T05:51:10.380Z,72.96
2023-02-08T05:53:37.040Z,73.43
2023-02-08T05:56:03.805Z,73.26
2023-02-08T05:58:30.609Z,73.79
2023-02-08T06:00:57.235Z,74.09
2023-02-08T06:03:23.937Z,75.10
2023-02-08T06:05:50.541Z,74.70
2023-02-08T06:08:17.194Z,74.43
2023-02-08T06:10:43.836Z,74.12
2023-02-08T06:13:10.443Z,74.24
2023-02-08T06:15:37.067Z,73.81
2023-02-08T06:18:03.939Z,74.16
2023-02-08T06:20:30.704Z,73.72
2023-02-08T06:22:57.294Z,73.31
2023-02-08T06:25:23.971Z,74.01
2023-02-08T06:27:50.607Z,74.51
2023-02-08T06:30:17.255Z,74.30
2023-02-08T06:32:43.935Z,73.80
2023-02-08T06:35:10.877Z,72.92
2023-02-08T06:37:37.672Z,73.76
2023-02-08T06:40:05.973Z,73.41
2023-02-08T06:42:32.570Z,74.25
2023-02-08T06:44:59.204Z,73.72
2023-02-08T06:47:27.612Z,74.34
2023-02-08T06:49:54.720Z,74.30
2023-02-08T06:52:21.550Z,73.76
2023-02-08T06:54:48.149Z,74.08
2023-02-08T06:57:14.898Z,73.16
2023-02-08T06:59:42.163Z,73.85
2023-02-08T07:02:17.888Z,73.96
2023-02-08T07:04:44.801Z,73.88
2023-02-08T07:07:13.003Z,75.01
2023-02-08T07:09:39.792Z,75.20
2023-02-08T07:12:06.648Z,75.30
2023-02-08T07:14:39.810Z,74.85
2023-02-08T07:17:07.047Z,75.37
2023-02-08T07:19:33.723Z,75.13
2023-02-08T07:22:01.142Z,75.91
2023-02-08T07:24:27.722Z,76.03
2023-02-08T07:26:54.340Z,76.86
2023-02-08T07:29:21.120Z,77.00
2023-02-08T07:31:47.762Z,76.92
2023-02-08T07:34:14.402Z,77.20
2023-02-08T07:36:43.321Z,77.24
2023-02-08T07:39:09.919Z,75.92
2023-02-08T07:41:36.526Z,75.53
2023-02-08T07:44:03.319Z,75.16
2023-02-08T07:46:29.890Z,73.21
2023-02-08T07:48:56.578Z,74.09
2023-02-08T07:51:23.176Z,75.66
2023-02-08T07:53:50.586Z,74.21
2023-02-08T07:56:17.695Z,74.60
2023-02-08T07:58:44.383Z,74.51
2023-02-08T08:01:21.938Z,74.28
2023-02-08T08:03:50.940Z,74.46
2023-02-08T08:06:21.925Z,74.82
2023-02-08T08:08:48.941Z,74.37
2023-02-08T08:11:16.647Z,73.27
2023-02-08T08:13:43.302Z,73.79
2023-02-08T08:16:09.983Z,74.63
2023-02-08T08:18:36.823Z,72.76
2023-02-08T08:21:03.987Z,73.04
2023-02-08T08:23:31.517Z,72.98
2023-02-08T08:25:58.129Z,72.33
2023-02-08T08:28:25.115Z,70.90
2023-02-08T08:30:51.793Z,70.90
2023-02-08T08:33:18.489Z,71.06
2023-02-08T08:35:45.116Z,72.04
2023-02-08T08:38:11.766Z,71.36
2023-02-08T08:40:38.764Z,70.98
2023-02-08T08:43:05.559Z,69.96
2023-02-08T08:45:32.904Z,69.61
2023-02-08T08:47:59.551Z,69.28
2023-02-08T08:50:26.134Z,69.98
2023-02-08T08:52:52.733Z,68.53
2023-02-08T08:55:19.384Z,68.21
2023-02-08T08:57:45.977Z,67.94
2023-02-08T09:00:13.131Z,68.35
2023-02-08T09:02:39.712Z,67.78
2023-02-08T09:05:06.637Z,67.58
2023-02-08T09:07:33.569Z,67.36
2023-02-08T09:10:00.169Z,66.34
2023-02-08T09:12:26.754Z,66.68
2023-02-08T09:14:54.266Z,66.76
2023-02-08T09:17:21.129Z,65.67
2023-02-08T09:19:47.763Z,65.16
2023-02-08T09:22:15.595Z,65.80
2023-02-08T09:24:42.243Z,64.78
2023-02-08T09:27:08.910Z,65.52
2023-02-08T09:29:35.613Z,64.54
2023-02-08T09:32:02.241Z,66.35
2023-02-08T09:34:28.947Z,64.72
2023-02-08T09:36:55.538Z,64.38
2023-02-08T09:39:24.387Z,63.80
2023-02-08T09:42:14.611Z,63.27
2023-02-08T09:44:53.420Z,63.90
2023-02-08T09:47:23.143Z,62.47
2023-02-08T09:49:52.989Z,63.70
2023-02-08T09:52:24.619Z,63.92
2023-02-08T09:54:59.642Z,63.29
2023-02-08T09:57:31.732Z,63.43
2023-02-08T10:00:05.125Z,64.13
2023-02-08T10:02:33.614Z,62.47
2023-02-08T10:05:28.133Z,62.96
2023-02-08T10:07:54.951Z,61.93
2023-02-08T10:10:48.607Z,61.91
2023-02-08T10:13:41.372Z,60.62
2023-02-08T10:16:18.612Z,60.96
2023-02-08T10:19:22.736Z,61.02
2023-02-08T10:22:01.120Z,60.26
2023-02-08T10:24:40.469Z,60.71
2023-02-08T10:27:24.088Z,59.45
2023-02-08T10:30:05.459Z,59.21
2023-02-08T10:32:50.142Z,59.80
2023-02-08T10:35:28.128Z,60.60
2023-02-08T10:37:55.323Z,60.11
2023-02-08T10:40:31.477Z,60.80
2023-02-08T10:43:23.006Z,59.86
2023-02-08T10:46:07.171Z,58.79
2023-02-08T10:48:48.629Z,61.59
2023-02-08T10:51:18.178Z,59.13
2023-02-08T10:53:45.595Z,56.71
2023-02-08T10:56:30.570Z,56.82
2023-02-08T10:59:02.139Z,55.78
2023-02-08T11:01:29.267Z,56.91
2023-02-08T11:04:10.202Z,57.99
2023-02-08T11:06:38.869Z,57.74
2023-02-08T11:09:05.724Z,55.39
2023-02-08T11:11:38.777Z,56.07
2023-02-08T11:14:14.051Z,56.74
2023-02-08T11:16:41.343Z,55.66
2023-02-08T11:19:40.752Z,55.35
2023-02-08T11:22:16.129Z,53.57
2023-02-08T11:24:42.853Z,54.27
2023-02-08T11:27:36.596Z,53.68
2023-02-08T11:30:15.583Z,52.94
2023-02-08T11:32:44.840Z,53.24
2023-02-08T11:35:25.820Z,53.21
2023-02-08T11:37:58.416Z,52.59
2023-02-08T11:40:34.878Z,50.25
2023-02-08T11:43:02.375Z,51.22
2023-02-08T11:45:35.248Z,51.64
2023-02-08T11:48:03.712Z,51.73
2023-02-08T11:50:33.230Z,51.02
2023-02-08T11:53:07.454Z,51.69
2023-02-08T11:55:35.316Z,51.83
2023-02-08T11:58:04.979Z,51.49
2023-02-08T12:00:37.294Z,51.21
2023-02-08T12:03:16.936Z,50.84
2023-02-08T12:06:11.324Z,51.28
2023-02-08T12:08:56.823Z,50.42
2023-02-08T12:11:43.016Z,49.78
2023-02-08T12:14:25.040Z,50.84
2023-02-08T12:17:26.894Z,50.30
2023-02-08T12:20:08.514Z,50.18
2023-02-08T12:22:43.381Z,48.89
2023-02-08T12:25:31.736Z,49.98
2023-02-08T12:28:07.212Z,49.69
2023-02-08T12:30:42.036Z,47.30
2023-02-08T12:33:39.477Z,47.70
2023-02-08T12:36:15.150Z,48.41
2023-02-08T12:39:26.571Z,46.57
2023-02-08T12:42:13.374Z,47.06
2023-02-08T12:45:03.967Z,45.75
2023-02-08T12:47:58.249Z,48.74
2023-02-08T12:50:34.272Z,48.07
2023-02-08T12:53:09.254Z,48.76
2023-02-08T12:55:39.283Z,46.98
2023-02-08T12:58:26.235Z,45.83
2023-02-08T13:01:00.842Z,46.99
2023-02-08T13:03:41.884Z,46.25
2023-02-08T13:06:24.915Z,46.90
2023-02-08T13:08:59.087Z,46.06
2023-02-08T13:11:41.799Z,45.82
2023-02-08T13:14:26.676Z,45.60
2023-02-08T13:16:57.558Z,44.98
2023-02-08T13:19:31.730Z,44.51
2023-02-08T13:21:59.897Z,45.23
2023-02-08T13:24:39.378Z,46.25
2023-02-08T13:27:06.382Z,45.52
2023-02-08T13:29:34.514Z,45.48
2023-02-08T13:32:09.910Z,44.84
2023-02-08T13:34:43.212Z,45.53
2023-02-08T13:37:25.679Z,46.62
2023-02-08T13:40:17.945Z,46.77
2023-02-08T13:42:52.465Z,45.34
2023-02-08T13:45:45.369Z,45.76
2023-02-08T13:48:16.015Z,45.09
2023-02-08T13:50:53.995Z,44.13
2023-02-08T13:53:40.925Z,44.64
2023-02-08T13:56:13.712Z,44.69
2023-02-08T13:58:49.224Z,44.76
2023-02-08T14:01:22.914Z,44.63
2023-02-08T14:04:07.533Z,45.83
2023-02-08T14:06:57.900Z,45.60
2023-02-08T14:09:56.401Z,44.91
2023-02-08T14:12:58.409Z,45.98
2023-02-08T14:15:35.864Z,46.58
2023-02-08T14:18:03.950Z,46.08
2023-02-08T14:20:37.442Z,47.08
2023-02-08T14:23:27.578Z,46.37
2023-02-08T14:25:57.490Z,46.86
2023-02-08T14:28:37.642Z,47.82
2023-02-08T14:31:10.707Z,45.58
2023-02-08T14:33:41.804Z,46.64
2023-02-08T14:36:40.910Z,46.93
2023-02-08T14:39:21.865Z,47.81
2023-02-08T14:42:02.766Z,47.16
2023-02-08T14:44:38.187Z,47.45
2023-02-08T14:47:11.355Z,48.76
2023-02-08T14:49:42.148Z,46.39
2023-02-08T14:52:21.422Z,45.15
2023-02-08T14:54:54.452Z,45.32
2023-02-08T14:57:30.296Z,46.35
2023-02-08T15:00:01.267Z,47.77
2023-02-08T15:02:29.675Z,46.34
2023-02-08T15:04:57.492Z,48.32
2023-02-08T15:07:42.161Z,48.23
2023-02-08T15:10:14.159Z,46.83
2023-02-08T15:12:44.485Z,46.74
2023-02-08T15:15:42.753Z,47.24
2023-02-08T15:18:29.971Z,48.15
2023-02-08T15:21:03.793Z,47.09
2023-02-08T15:23:33.194Z,47.79
2023-02-08T15:26:03.153Z,46.79
2023-02-08T15:28:32.044Z,47.65
2023-02-08T15:31:04.782Z,48.38
2023-02-08T15:33:32.349Z,48.54
2023-02-08T15:36:06.987Z,48.88
2023-02-08T15:38:37.407Z,49.00
2023-02-08T15:41:04.073Z,48.22
2023-02-08T15:43:31.506Z,49.86
2023-02-08T15:46:01.289Z,49.48
2023-02-08T15:48:29.346Z,49.83
2023-02-08T15:50:57.175Z,50.10
2023-02-08T15:53:24.882Z,50.39
2023-02-08T15:55:59.144Z,49.03
2023-02-08T15:58:34.633Z,49.53
2023-02-08T16:01:03.470Z,50.47
2023-02-08T16:03:31.346Z,50.98
2023-02-08T16:06:01.793Z,52.85
2023-02-08T16:08:31.651Z,51.84
2023-02-08T16:11:10.313Z,52.23
2023-02-08T16:13:40.225Z,52.10
2023-02-08T16:16:23.323Z,53.01
2023-02-08T16:18:59.219Z,53.24
2023-02-08T16:21:25.757Z,53.16
2023-02-08T16:23:58.314Z,53.52
2023-02-08T16:26:31.565Z,53.34
2023-02-08T16:29:04.849Z,53.32
2023-02-08T16:31:34.694Z,52.97
2023-02-08T16:34:02.853Z,54.17
2023-02-08T16:36:52.641Z,53.02
2023-02-08T16:39:19.287Z,53.93
2023-02-08T16:42:06.502Z,54.03
2023-02-08T16:45:17.342Z,53.61
2023-02-08T16:47:58.418Z,54.30
2023-02-08T16:50:28.244Z,54.04
2023-02-08T16:53:03.045Z,54.81
2023-02-08T16:55:36.852Z,54.47
2023-02-08T16:58:04.992Z,55.50
2023-02-08T17:00:34.752Z,55.03
2023-02-08T17:03:01.883Z,55.79
2023-02-08T17:05:37.323Z,55.68
2023-02-08T17:08:06.006Z,56.16
2023-02-08T17:10:33.151Z,56.71
2023-02-08T17:13:18.855Z,55.99
2023-02-08T17:15:48.593Z,56.00
2023-02-08T17:18:15.371Z,56.55
2023-02-08T17:20:42.927Z,56.70
2023-02-08T17:23:10.144Z,55.94
2023-02-08T17:25:36.814Z,56.79
2023-02-08T17:28:09.587Z,56.84
2023-02-08T17:30:39.315Z,56.52
2023-02-08T17:33:06.366Z,56.41
2023-02-08T17:35:33.936Z,56.71
2023-02-08T17:38:00.693Z,57.12
2023-02-08T17:40:30.968Z,56.70
2023-02-08T17:42:57.810Z,57.18
2023-02-08T17:45:24.629Z,57.62
2023-02-08T17:47:51.293Z,57.44
2023-02-08T17:50:18.665Z,57.19
2023-02-08T17:52:47.650Z,57.60
2023-02-08T17:55:18.393Z,57.72
2023-02-08T17:57:45.677Z,58.51
2023-02-08T18:00:15.701Z,58.24
2023-02-08T18:02:47.908Z,58.37
2023-02-08T18:05:19.594Z,58.42
2023-02-08T18:07:46.494Z,58.43
2023-02-08T18:10:14.416Z,58.66
2023-02-08T18:12:41.593Z,58.51
2023-02-08T18:15:11.280Z,58.72
2023-02-08T18:17:38.364Z,58.73
2023-02-08T18:20:05.650Z,58.71
2023-02-08T18:22:32.712Z,59.13
2023-02-08T18:24:59.292Z,59.46
2023-02-08T18:27:26.009Z,59.11
2023-02-08T18:29:55.335Z,58.80
2023-02-08T18:32:22.080Z,59.52
2023-02-08T18:34:49.655Z,59.81
2023-02-08T18:37:16.719Z,59.99
2023-02-08T18:39:43.395Z,60.10
2023-02-08T18:42:10.040Z,61.06
2023-02-08T18:44:38.005Z,60.47
2023-02-08T18:47:06.386Z,60.75
2023-02-08T18:49:33.535Z,61.35
2023-02-08T18:52:00.141Z,61.60
2023-02-08T18:54:26.713Z,61.30
2023-02-08T18:56:53.356Z,61.41
2023-02-08T18:59:23.217Z,61.24
2023-02-08T19:01:49.869Z,61.95
2023-02-08T19:04:16.653Z,62.31
2023-02-08T19:06:43.432Z,61.96
2023-02-08T19:09:10.125Z,61.64
2023-02-08T19:11:39.739Z,61.44
2023-02-08T19:14:10.697Z,61.45
2023-02-08T19:16:38.847Z,61.67
2023-02-08T19:19:06.730Z,61.59
2023-02-08T19:21:34.214Z,61.47
2023-02-08T19:24:01.888Z,62.03
2023-02-08T19:26:34.567Z,61.96
2023-02-08T19:29:03.096Z,62.37
2023-02-08T19:31:31.041Z,62.49
2023-02-08T19:33:59.894Z,62.80
2023-02-08T19:36:33.079Z,62.65
2023-02-08T19:39:00.640Z,62.75
2023-02-08T19:41:30.829Z,62.78
2023-02-08T19:43:57.580Z,63.18
2023-02-08T19:46:24.992Z,63.66
2023-02-08T19:48:54.800Z,63.72
2023-02-08T19:51:21.876Z,63.48
2023-02-08T19:53:48.770Z,64.59
2023-02-08T19:56:18.021Z,63.78
2023-02-08T19:58:46.401Z,64.18
2023-02-08T20:01:17.003Z,64.26
2023-02-08T20:03:44.684Z,63.67
2023-02-08T20:06:24.845Z,64.11
2023-02-08T20:08:51.485Z,64.95
2023-02-08T20:11:30.384Z,64.96
2023-02-08T20:13:59.443Z,64.93
2023-02-08T20:16:30.485Z,65.33
2023-02-08T20:19:00.364Z,65.33
2023-02-08T20:21:27.526Z,64.91
2023-02-08T20:23:54.178Z,64.47
2023-02-08T20:26:22.882Z,64.96
2023-02-08T20:28:59.256Z,63.77
2023-02-08T20:31:31.678Z,64.28
2023-02-08T20:34:00.781Z,64.12
2023-02-08T20:36:29.791Z,64.47
2023-02-08T20:38:57.874Z,64.71
2023-02-08T20:41:26.496Z,64.89
2023-02-08T20:43:53.874Z,64.63
2023-02-08T20:46:24.200Z,65.20
2023-02-08T20:48:52.284Z,64.91
2023-02-08T20:51:21.349Z,65.06
2023-02-08T20:53:49.186Z,65.20
2023-02-08T20:56:22.323Z,64.79
2023-02-08T20:58:49.425Z,65.02
2023-02-08T21:01:18.832Z,65.36
2023-02-08T21:03:46.220Z,65.27
2023-02-08T21:06:23.279Z,66.08
2023-02-08T21:08:52.863Z,65.64
2023-02-08T21:11:20.933Z,66.23
2023-02-08T21:13:47.716Z,65.60
2023-02-08T21:16:15.801Z,65.92
2023-02-08T21:18:42.740Z,65.89
2023-02-08T21:21:10.050Z,65.13
2023-02-08T21:23:37.787Z,65.86
2023-02-08T21:26:07.932Z,66.15
2023-02-08T21:28:35.158Z,66.26
2023-02-08T21:31:14.156Z,66.55
2023-02-08T21:33:42.568Z,66.74
2023-02-08T21:36:13.352Z,66.32
2023-02-08T21:38:40.037Z,66.97
2023-02-08T21:41:12.715Z,67.07
2023-02-08T21:43:39.355Z,66.92
2023-02-08T21:46:07.546Z,66.40
2023-02-08T21:48:34.871Z,67.17
2023-02-08T21:51:01.488Z,66.87
2023-02-08T21:53:28.161Z,67.04
2023-02-08T21:55:54.839Z,67.16
2023-02-08T21:58:21.464Z,67.10
2023-02-08T22:00:49.970Z,67.34
2023-02-08T22:03:16.648Z,68.29
2023-02-08T22:05:43.618Z,68.37
2023-02-08T22:08:10.357Z,68.19
2023-02-08T22:10:38.236Z,68.85
2023-02-08T22:13:05.035Z,68.44
2023-02-08T22:15:31.779Z,68.64
2023-02-08T22:18:01.250Z,67.92
2023-02-08T22:20:28.839Z,68.94
2023-02-08T22:22:56.097Z,69.18
2023-02-08T22:25:23.255Z,69.64
2023-02-08T22:27:50.109Z,69.76
2023-02-08T22:30:17.766Z,69.77
2023-02-08T22:32:46.269Z,69.44
2023-02-08T22:35:13.334Z,69.32
2023-02-08T22:37:40.140Z,70.54
2023-02-08T22:40:07.925Z,70.11
2023-02-08T22:42:34.626Z,69.91
2023-02-08T22:45:01.418Z,70.96
2023-02-08T22:47:28.011Z,70.61
2023-02-08T22:49:56.890Z,70.54
2023-02-08T22:52:23.501Z,69.79
2023-02-08T22:54:50.831Z,70.11
2023-02-08T22:57:17.903Z,69.48
2023-02-08T22:59:44.610Z,69.64
2023-02-08T23:02:11.229Z,69.04
2023-02-08T23:04:37.945Z,69.19
2023-02-08T23:07:04.814Z,69.09
2023-02-08T23:09:31.490Z,69.65
2023-02-08T23:11:58.076Z,70.26
2023-02-08T23:14:24.707Z,69.43
2023-02-08T23:16:51.330Z,69.62
2023-02-08T23:19:18.888Z,69.13
2023-02-08T23:21:45.660Z,69.10
2023-02-08T23:24:12.356Z,69.09
2023-02-08T23:26:39.043Z,69.85
2023-02-08T23:29:05.836Z,70.54
2023-02-08T23:31:32.732Z,70.83
2023-02-08T23:34:00.111Z,70.14
2023-02-08T23:36:26.835Z,70.26
2023-02-08T23:38:53.710Z,69.75
2023-02-08T23:41:21.901Z,69.98
2023-02-08T23:43:50.459Z,70.22
2023-02-08T23:46:20.708Z,70.41
2023-02-08T23:48:47.454Z,70.46
2023-02-08T23:51:16.279Z,70.97
2023-02-08T23:53:42.914Z,70.70
2023-02-08T23:56:22.689Z,70.14
2023-02-08T23:58:51.615Z,69.95
